Time;durP1;ratioP1;P1;durP2;ratioP2;P2;SDS_P1;SDS_P2;PMS_P1;PMS_P2;Temp;Humidity;BMP_temperature;BMP_pressure;BME280_temperature;BME280_humidity;BME280_pressure;Samples;Min_cycle;Max_cycle;Signal;HPM_P1;HPM_P2
2023/11/08 00:01:59;;;;;;;20.75;16.23;;;8.40;99.90;;;;;;7371348;19;20117;-63
2023/11/08 00:04:25;;;;;;;20.23;16.67;;;8.30;99.90;;;;;;7370765;19;20035;-64
2023/11/08 00:06:52;;;;;;;23.55;16.83;;;8.30;99.90;;;;;;7369244;19;20377;-64
2023/11/08 00:09:19;;;;;;;23.98;17.15;;;8.30;99.90;;;;;;7366967;19;20031;-59
2023/11/08 00:11:46;;;;;;;22.45;17.77;;;8.30;99.90;;;;;;7369759;19;20026;-58
2023/11/08 00:14:12;;;;;;;27.00;18.98;;;8.30;99.90;;;;;;7366819;19;20022;-58
2023/11/08 00:16:38;;;;;;;24.50;18.55;;;8.30;99.90;;;;;;7367393;19;20025;-58
2023/11/08 00:19:07;;;;;;;24.45;19.33;;;8.30;99.90;;;;;;7367030;19;20014;-58
2023/11/08 00:21:34;;;;;;;23.35;18.35;;;8.30;99.90;;;;;;7363912;19;20777;-64
2023/11/08 00:24:02;;;;;;;25.48;20.02;;;8.30;99.90;;;;;;7367656;19;20022;-64
2023/11/08 00:26:29;;;;;;;26.33;21.60;;;8.20;99.90;;;;;;7366179;19;20119;-64
2023/11/08 00:28:56;;;;;;;28.33;21.58;;;8.30;99.90;;;;;;7367858;19;20010;-64
2023/11/08 00:31:23;;;;;;;24.83;21.23;;;8.30;99.90;;;;;;7365970;19;20014;-64
2023/11/08 00:33:52;;;;;;;28.42;21.55;;;8.30;99.90;;;;;;7371049;19;20024;-64
2023/11/08 00:36:21;;;;;;;30.60;21.75;;;8.30;99.90;;;;;;7367671;19;20026;-64
2023/11/08 00:38:48;;;;;;;30.02;22.77;;;8.30;99.90;;;;;;7367856;19;20010;-58
2023/11/08 00:41:15;;;;;;;29.48;22.85;;;8.30;99.90;;;;;;7366809;19;20022;-58
2023/11/08 00:43:42;;;;;;;28.63;22.55;;;8.40;99.90;;;;;;7362603;19;20018;-58
2023/11/08 00:46:08;;;;;;;27.30;21.90;;;8.30;99.90;;;;;;7369084;19;20022;-59
2023/11/08 00:48:36;;;;;;;25.23;22.52;;;8.40;99.90;;;;;;7367274;19;20018;-58
2023/11/08 00:55:23;;;;;;;26.88;20.60;;;8.40;99.90;;;;;;7364047;19;20842;-58
2023/11/08 00:57:51;;;;;;;26.52;20.15;;;8.40;99.90;;;;;;7365918;19;20024;-59
2023/11/08 01:00:18;;;;;;;24.83;20.15;;;8.40;99.90;;;;;;7365400;19;20862;-58
2023/11/08 01:02:44;;;;;;;28.00;22.10;;;8.30;99.90;;;;;;7363607;19;20019;-58
2023/11/08 01:05:11;;;;;;;25.63;22.58;;;8.30;99.90;;;;;;7368845;19;20015;-58
2023/11/08 01:07:38;;;;;;;29.50;21.95;;;8.20;99.90;;;;;;7362708;19;20031;-58
2023/11/08 01:10:05;;;;;;;28.52;22.05;;;8.30;99.90;;;;;;7367880;19;20031;-58
2023/11/08 01:12:31;;;;;;;28.60;22.58;;;8.30;99.90;;;;;;7370704;19;21580;-58
2023/11/08 01:14:58;;;;;;;27.15;21.92;;;8.30;99.90;;;;;;7370237;19;20022;-58
2023/11/08 01:17:24;;;;;;;25.35;21.85;;;8.30;99.90;;;;;;7370644;19;20632;-58
2023/11/08 01:19:51;;;;;;;27.20;21.73;;;8.30;99.90;;;;;;7377605;19;20018;-58
2023/11/08 01:22:18;;;;;;;28.80;21.60;;;8.30;99.90;;;;;;7370842;19;20011;-58
2023/11/08 01:24:44;;;;;;;24.40;20.30;;;8.30;99.90;;;;;;7374781;19;20022;-58
2023/11/08 01:27:10;;;;;;;32.60;23.48;;;8.30;99.90;;;;;;7372392;19;20420;-58
2023/11/08 01:29:37;;;;;;;34.47;23.35;;;8.30;99.90;;;;;;7378628;19;20485;-58
2023/11/08 01:32:03;;;;;;;28.30;22.15;;;8.30;99.90;;;;;;7371253;19;20025;-58
2023/11/08 01:34:30;;;;;;;25.73;19.73;;;8.30;99.90;;;;;;7373268;19;20019;-58
2023/11/08 01:36:57;;;;;;;26.70;21.33;;;8.20;99.90;;;;;;7375382;19;20126;-58
2023/11/08 01:39:23;;;;;;;32.33;21.20;;;8.20;99.90;;;;;;7378324;19;20025;-58
2023/11/08 01:41:51;;;;;;;23.90;18.67;;;8.20;99.90;;;;;;7368532;19;20094;-58
2023/11/08 01:44:22;;;;;;;24.48;18.48;;;8.30;99.90;;;;;;7370943;19;20042;-59
2023/11/08 01:46:55;;;;;;;24.08;17.27;;;8.20;99.90;;;;;;7374747;19;20030;-58
2023/11/08 01:49:25;;;;;;;24.05;18.20;;;8.20;99.90;;;;;;7371469;19;20045;-63
2023/11/08 01:51:53;;;;;;;28.75;18.42;;;8.30;99.90;;;;;;7375861;19;20018;-63
2023/11/08 01:54:20;;;;;;;22.85;18.20;;;8.20;99.90;;;;;;7372940;19;20879;-64
2023/11/08 01:56:47;;;;;;;22.77;18.38;;;8.30;99.90;;;;;;7374001;19;20025;-63
2023/11/08 01:59:21;;;;;;;28.35;17.35;;;8.30;99.90;;;;;;7370080;19;20022;-63
2023/11/08 02:01:48;;;;;;;22.63;18.95;;;8.30;99.90;;;;;;7372605;19;20058;-64
2023/11/08 02:04:16;;;;;;;21.65;17.88;;;8.30;99.90;;;;;;7370578;19;20015;-64
2023/11/08 02:06:46;;;;;;;25.05;18.05;;;8.20;99.90;;;;;;7373041;19;20022;-63
2023/11/08 02:09:12;;;;;;;23.25;16.98;;;8.20;99.90;;;;;;7373593;19;20019;-64
2023/11/08 02:11:40;;;;;;;23.45;17.63;;;8.20;99.90;;;;;;7371647;19;20038;-64
2023/11/08 02:14:06;;;;;;;21.75;16.80;;;8.20;99.90;;;;;;7373726;19;20025;-64
2023/11/08 02:16:33;;;;;;;24.75;17.48;;;8.10;99.90;;;;;;7373006;19;20376;-64
2023/11/08 02:18:59;;;;;;;22.88;17.08;;;8.20;99.90;;;;;;7376923;19;20030;-64
2023/11/08 02:21:25;;;;;;;23.45;17.83;;;8.20;99.90;;;;;;7372258;19;20115;-58
2023/11/08 02:23:51;;;;;;;21.77;17.02;;;8.20;99.90;;;;;;7371645;19;20022;-58
2023/11/08 02:26:18;;;;;;;20.25;17.38;;;8.20;99.90;;;;;;7366035;19;20140;-64
2023/11/08 02:28:44;;;;;;;21.23;15.88;;;8.10;99.90;;;;;;7372151;19;20768;-64
2023/11/08 02:31:10;;;;;;;21.73;16.45;;;8.20;99.90;;;;;;7369204;19;20018;-64
2023/11/08 02:33:36;;;;;;;21.02;16.40;;;8.20;99.90;;;;;;7375035;19;20033;-59
2023/11/08 02:36:03;;;;;;;20.35;15.73;;;8.20;99.90;;;;;;7372446;19;20018;-58
2023/11/08 02:38:29;;;;;;;21.75;16.25;;;8.30;99.90;;;;;;7369850;19;20026;-58
2023/11/08 02:40:56;;;;;;;19.23;13.93;;;8.30;99.90;;;;;;7370917;19;20018;-59
2023/11/08 02:43:24;;;;;;;17.38;13.95;;;8.30;99.90;;;;;;7371728;19;20018;-59
2023/11/08 02:45:50;;;;;;;20.55;14.55;;;8.30;99.90;;;;;;7374066;19;20646;-58
2023/11/08 02:48:17;;;;;;;18.25;12.90;;;8.20;99.90;;;;;;7371022;19;20033;-64
2023/11/08 02:50:48;;;;;;;15.25;12.82;;;8.20;99.90;;;;;;7368862;19;20022;-64
2023/11/08 02:53:14;;;;;;;19.33;12.25;;;8.20;99.90;;;;;;7369811;19;20019;-64
2023/11/08 02:55:41;;;;;;;15.70;10.75;;;8.20;99.90;;;;;;7366370;19;20105;-64
2023/11/08 02:58:07;;;;;;;14.80;11.65;;;8.20;99.90;;;;;;7370667;19;20098;-64
2023/11/08 03:00:33;;;;;;;18.08;11.10;;;8.20;99.90;;;;;;7364538;19;20082;-59
2023/11/08 03:03:00;;;;;;;19.60;10.93;;;8.20;99.90;;;;;;7362196;19;20030;-58
2023/11/08 03:05:27;;;;;;;15.38;11.73;;;8.10;99.90;;;;;;7373153;19;20022;-59
2023/11/08 03:07:54;;;;;;;17.02;12.10;;;8.10;99.90;;;;;;7369613;19;20090;-59
2023/11/08 03:10:22;;;;;;;19.20;12.07;;;8.10;99.90;;;;;;7371621;19;20046;-64
2023/11/08 03:12:53;;;;;;;19.00;13.07;;;8.10;99.90;;;;;;7372020;19;20018;-64
2023/11/08 03:15:22;;;;;;;16.75;12.15;;;8.10;99.90;;;;;;7371070;19;20026;-64
2023/11/08 03:17:51;;;;;;;19.63;12.38;;;8.10;99.90;;;;;;7370619;19;20453;-64
2023/11/08 03:20:18;;;;;;;18.10;13.07;;;8.10;99.90;;;;;;7369876;19;20014;-64
2023/11/08 03:22:45;;;;;;;19.85;13.05;;;8.00;99.90;;;;;;7366517;19;20019;-64
2023/11/08 03:25:13;;;;;;;16.42;13.50;;;8.10;99.90;;;;;;7370468;19;20039;-64
2023/11/08 03:27:43;;;;;;;18.20;13.80;;;8.10;99.90;;;;;;7375354;19;20035;-64
2023/11/08 03:30:12;;;;;;;22.25;14.82;;;8.10;99.90;;;;;;7368932;19;20074;-63
2023/11/08 03:32:39;;;;;;;17.25;14.77;;;8.10;99.90;;;;;;7374022;19;20041;-63
2023/11/08 03:35:06;;;;;;;18.63;15.50;;;8.10;99.90;;;;;;7365725;19;20025;-64
2023/11/08 03:37:37;;;;;;;20.85;16.30;;;8.10;99.90;;;;;;7371147;19;20039;-59
2023/11/08 03:40:05;;;;;;;20.80;15.38;;;8.00;99.90;;;;;;7367701;19;20053;-58
2023/11/08 03:42:34;;;;;;;23.30;15.07;;;8.00;99.90;;;;;;7367926;19;20023;-58
2023/11/08 03:45:05;;;;;;;19.92;16.00;;;8.00;99.90;;;;;;7366489;19;20041;-59
2023/11/08 03:47:34;;;;;;;23.58;15.93;;;8.00;99.90;;;;;;7370431;19;20030;-58
2023/11/08 03:50:00;;;;;;;20.02;16.20;;;8.00;99.90;;;;;;7368925;19;20113;-58
2023/11/08 03:52:27;;;;;;;19.58;15.90;;;7.90;99.90;;;;;;7371857;19;20055;-58
2023/11/08 03:54:54;;;;;;;23.77;17.63;;;7.90;99.90;;;;;;7368949;19;20022;-58
2023/11/08 03:57:20;;;;;;;24.30;17.75;;;7.90;99.90;;;;;;7368095;19;20816;-58
2023/11/08 03:59:49;;;;;;;25.48;18.27;;;7.80;99.90;;;;;;7369049;19;20454;-59
2023/11/08 04:02:20;;;;;;;25.05;17.95;;;7.80;99.90;;;;;;7370438;19;20056;-58
2023/11/08 04:04:47;;;;;;;24.67;17.95;;;7.80;99.90;;;;;;7373511;19;20052;-58
2023/11/08 04:07:14;;;;;;;24.95;17.38;;;7.90;99.90;;;;;;7367328;19;20022;-59
2023/11/08 04:09:41;;;;;;;22.65;17.63;;;7.80;99.90;;;;;;7367232;19;20018;-58
2023/11/08 04:12:09;;;;;;;22.08;15.70;;;7.80;99.90;;;;;;7365775;19;20041;-58
2023/11/08 04:14:36;;;;;;;24.73;17.35;;;7.80;99.90;;;;;;7368638;19;20014;-59
2023/11/08 04:17:02;;;;;;;22.00;16.50;;;7.80;99.90;;;;;;7367712;19;20388;-59
2023/11/08 04:19:29;;;;;;;23.15;16.83;;;7.80;99.90;;;;;;7368403;19;20019;-59
2023/11/08 04:21:58;;;;;;;23.08;15.90;;;7.80;99.90;;;;;;7367354;19;20785;-58
2023/11/08 04:24:25;;;;;;;23.27;17.10;;;7.80;99.90;;;;;;7368298;19;20022;-58
2023/11/08 04:26:52;;;;;;;20.63;16.15;;;7.80;99.90;;;;;;7371319;19;20022;-59
2023/11/08 04:29:18;;;;;;;22.30;17.77;;;7.80;99.90;;;;;;7370162;19;20018;-58
2023/11/08 04:31:45;;;;;;;24.58;16.33;;;7.80;99.90;;;;;;7369755;19;20019;-58
2023/11/08 04:34:12;;;;;;;24.60;16.05;;;7.80;99.90;;;;;;7368711;19;20098;-59
2023/11/08 04:36:39;;;;;;;25.05;16.52;;;7.80;99.90;;;;;;7367221;19;20018;-59
2023/11/08 04:39:07;;;;;;;23.00;16.55;;;7.70;99.90;;;;;;7370174;19;20470;-59
2023/11/08 04:41:33;;;;;;;24.02;16.60;;;7.80;99.90;;;;;;7369447;19;20022;-59
2023/11/08 04:44:00;;;;;;;22.73;17.05;;;7.70;99.90;;;;;;7367667;19;20567;-59
2023/11/08 04:46:26;;;;;;;24.15;16.63;;;7.80;99.90;;;;;;7370270;19;20618;-65
2023/11/08 04:48:52;;;;;;;23.00;17.80;;;7.70;99.90;;;;;;7369985;19;20486;-65
2023/11/08 04:51:18;;;;;;;25.30;17.17;;;7.80;99.90;;;;;;7367124;19;20723;-64
2023/11/08 04:53:45;;;;;;;25.23;18.40;;;7.90;99.90;;;;;;7372502;19;20074;-65
2023/11/08 04:56:12;;;;;;;24.77;17.77;;;7.80;99.90;;;;;;7366039;19;20027;-65
2023/11/08 04:58:38;;;;;;;23.13;18.13;;;7.90;99.90;;;;;;7368121;19;20026;-59
2023/11/08 05:01:04;;;;;;;29.83;20.38;;;7.80;99.90;;;;;;7364172;19;20624;-60
2023/11/08 05:03:30;;;;;;;26.10;21.65;;;7.90;99.90;;;;;;7368611;19;20152;-59
2023/11/08 05:05:56;;;;;;;31.63;21.40;;;8.00;99.90;;;;;;7367299;19;20026;-59
2023/11/08 05:08:23;;;;;;;28.05;21.55;;;8.00;99.90;;;;;;7368281;19;20375;-60
2023/11/08 05:10:50;;;;;;;30.95;21.60;;;8.00;99.90;;;;;;7363897;19;20035;-59
2023/11/08 05:13:16;;;;;;;30.77;23.67;;;8.10;99.90;;;;;;7370759;19;20133;-59
2023/11/08 05:15:43;;;;;;;31.55;23.65;;;8.10;99.90;;;;;;7369519;19;20604;-60
2023/11/08 05:18:09;;;;;;;32.35;24.60;;;8.10;99.90;;;;;;7366562;19;20015;-59
2023/11/08 05:20:38;;;;;;;38.67;26.55;;;8.20;99.90;;;;;;7368717;19;20105;-60
2023/11/08 05:23:04;;;;;;;36.75;26.52;;;8.20;99.90;;;;;;7364579;19;20118;-59
2023/11/08 05:25:31;;;;;;;34.25;28.05;;;8.20;99.90;;;;;;7368351;19;20018;-60
2023/11/08 05:27:58;;;;;;;35.35;26.17;;;8.30;99.90;;;;;;7369656;19;20642;-60
2023/11/08 05:30:25;;;;;;;37.15;28.20;;;8.30;99.90;;;;;;7368433;19;20037;-60
2023/11/08 05:32:52;;;;;;;45.40;29.45;;;8.30;99.90;;;;;;7373011;19;20075;-60
2023/11/08 05:35:18;;;;;;;41.63;28.75;;;8.30;99.90;;;;;;7365990;19;20037;-60
2023/11/08 05:37:47;;;;;;;41.38;29.33;;;8.40;99.90;;;;;;7369991;19;20014;-59
2023/11/08 05:40:14;;;;;;;38.85;28.75;;;8.40;99.90;;;;;;7363405;19;20022;-60
2023/11/08 05:42:41;;;;;;;40.47;29.63;;;8.40;99.90;;;;;;7366153;19;20031;-60
2023/11/08 05:45:08;;;;;;;38.35;31.00;;;8.40;99.90;;;;;;7366779;19;20015;-65
2023/11/08 05:47:36;;;;;;;43.30;31.58;;;8.40;99.90;;;;;;7370210;19;20017;-62
2023/11/08 05:50:05;;;;;;;38.05;30.00;;;8.40;99.90;;;;;;7369026;19;20475;-60
2023/11/08 05:52:32;;;;;;;42.70;31.30;;;8.40;99.90;;;;;;7365978;19;20098;-60
2023/11/08 05:55:00;;;;;;;39.67;31.02;;;8.50;99.90;;;;;;7368254;19;20018;-60
2023/11/08 05:57:26;;;;;;;43.08;32.50;;;8.50;99.90;;;;;;7368682;19;20018;-60
2023/11/08 05:59:52;;;;;;;39.95;31.48;;;8.60;99.90;;;;;;7374768;19;20383;-60
2023/11/08 06:02:19;;;;;;;46.67;30.73;;;8.60;99.90;;;;;;7370286;19;20042;-60
2023/11/08 06:04:45;;;;;;;36.13;31.33;;;8.60;99.90;;;;;;7378075;19;20074;-59
2023/11/08 06:07:12;;;;;;;44.80;32.60;;;8.70;99.90;;;;;;7371697;19;20015;-60
2023/11/08 06:09:38;;;;;;;40.92;31.67;;;8.70;99.90;;;;;;7375892;19;20025;-60
2023/11/08 06:12:05;;;;;;;41.55;31.85;;;8.70;99.90;;;;;;7373331;19;20014;-60
2023/11/08 06:14:32;;;;;;;43.53;31.27;;;8.70;99.90;;;;;;7374439;19;20019;-60
2023/11/08 06:16:58;;;;;;;37.85;32.67;;;8.80;99.90;;;;;;7373435;19;20035;-60
2023/11/08 06:19:25;;;;;;;49.25;33.63;;;8.80;99.90;;;;;;7378988;19;20872;-60
2023/11/08 06:21:52;;;;;;;48.58;33.65;;;8.80;99.90;;;;;;7373124;19;20018;-60
2023/11/08 06:24:18;;;;;;;46.10;34.50;;;8.80;99.90;;;;;;7372139;19;20022;-60
2023/11/08 06:26:44;;;;;;;48.67;34.75;;;8.80;99.90;;;;;;7374264;19;20625;-60
2023/11/08 06:29:11;;;;;;;43.70;34.15;;;8.80;99.90;;;;;;7367010;19;20018;-60
2023/11/08 06:31:38;;;;;;;45.45;33.42;;;8.80;99.90;;;;;;7370638;19;20773;-59
2023/11/08 06:34:05;;;;;;;45.58;33.63;;;8.80;99.90;;;;;;7372447;19;20045;-60
2023/11/08 06:36:31;;;;;;;39.70;34.28;;;8.80;99.90;;;;;;7369203;19;20069;-61
2023/11/08 06:38:57;;;;;;;44.83;32.45;;;8.80;99.90;;;;;;7372997;19;20014;-60
2023/11/08 06:41:24;;;;;;;42.28;32.40;;;8.80;99.90;;;;;;7373073;19;21290;-60
2023/11/08 06:43:51;;;;;;;40.83;32.60;;;8.90;99.90;;;;;;7374583;19;20414;-60
2023/11/08 06:46:17;;;;;;;47.85;34.03;;;8.90;99.90;;;;;;7366827;19;20014;-60
2023/11/08 06:48:43;;;;;;;40.67;31.25;;;8.90;99.90;;;;;;7372967;19;20029;-60
2023/11/08 06:51:10;;;;;;;44.60;33.42;;;8.90;99.90;;;;;;7368552;19;20015;-60
2023/11/08 06:53:36;;;;;;;45.95;33.17;;;8.90;99.90;;;;;;7373917;19;20015;-59
2023/11/08 06:56:03;;;;;;;45.95;32.08;;;8.90;99.90;;;;;;7370011;19;20110;-61
2023/11/08 06:58:30;;;;;;;37.00;30.58;;;8.90;99.90;;;;;;7375056;19;20074;-61
2023/11/08 07:00:57;;;;;;;39.90;29.92;;;8.90;99.90;;;;;;7373007;19;20022;-60
2023/11/08 07:03:25;;;;;;;42.47;30.27;;;8.90;99.90;;;;;;7373483;19;20010;-60
2023/11/08 07:05:52;;;;;;;41.63;30.00;;;8.90;99.90;;;;;;7373250;19;20022;-59
2023/11/08 07:08:18;;;;;;;41.92;31.20;;;8.90;99.90;;;;;;7374038;19;20042;-58
2023/11/08 07:10:45;;;;;;;38.92;28.63;;;9.00;99.90;;;;;;7372848;19;20025;-63
2023/11/08 07:13:11;;;;;;;39.05;30.02;;;9.10;99.90;;;;;;7373790;19;20018;-64
2023/11/08 07:15:37;;;;;;;38.28;29.48;;;9.00;99.90;;;;;;7377491;19;20082;-63
2023/11/08 07:18:03;;;;;;;40.05;30.45;;;9.00;99.90;;;;;;7375350;19;20029;-63
2023/11/08 07:20:30;;;;;;;39.28;30.83;;;9.00;99.90;;;;;;7379131;19;20018;-63
2023/11/08 07:22:56;;;;;;;35.55;28.13;;;9.00;99.90;;;;;;7374287;19;20446;-63
2023/11/08 07:25:22;;;;;;;31.13;27.67;;;9.00;99.90;;;;;;7374762;19;20019;-64
2023/11/08 07:27:50;;;;;;;39.92;30.08;;;9.00;99.90;;;;;;7371691;19;20026;-63
2023/11/08 07:30:17;;;;;;;36.90;28.08;;;9.00;99.90;;;;;;7376825;19;20037;-64
2023/11/08 07:32:47;;;;;;;35.28;28.08;;;9.00;99.90;;;;;;7373286;19;20856;-64
2023/11/08 07:35:14;;;;;;;43.88;29.63;;;9.00;99.90;;;;;;7376979;19;20018;-65
2023/11/08 07:37:40;;;;;;;41.33;28.73;;;9.00;99.90;;;;;;7376102;19;20119;-64
2023/11/08 07:40:11;;;;;;;37.78;29.98;;;9.10;99.90;;;;;;7375626;19;20018;-58
2023/11/08 07:42:41;;;;;;;43.20;30.35;;;9.10;99.90;;;;;;7372288;19;20018;-58
2023/11/08 07:45:09;;;;;;;37.03;27.15;;;9.10;99.90;;;;;;7375905;19;20038;-63
2023/11/08 07:47:35;;;;;;;40.00;28.30;;;9.10;99.90;;;;;;7376458;19;20029;-64
2023/11/08 07:50:06;;;;;;;40.13;28.23;;;9.20;99.90;;;;;;7374291;19;20019;-59
2023/11/08 07:52:32;;;;;;;35.88;26.70;;;9.20;99.90;;;;;;7373947;19;20019;-63
2023/11/08 07:54:58;;;;;;;35.67;26.25;;;9.30;99.90;;;;;;7374207;19;20014;-64
2023/11/08 07:57:26;;;;;;;31.55;26.38;;;9.30;99.90;;;;;;7373298;19;20078;-63
2023/11/08 07:59:52;;;;;;;32.70;26.45;;;9.30;99.90;;;;;;7373828;19;20458;-63
2023/11/08 08:02:18;;;;;;;33.88;26.55;;;9.40;99.90;;;;;;7373342;19;20015;-58
2023/11/08 08:04:48;;;;;;;33.35;25.55;;;9.40;99.90;;;;;;7374483;19;20073;-63
2023/11/08 08:07:15;;;;;;;33.40;26.25;;;9.50;99.90;;;;;;7370398;19;20022;-59
2023/11/08 08:09:42;;;;;;;30.30;23.40;;;9.50;99.90;;;;;;7375517;19;20083;-59
2023/11/08 08:12:08;;;;;;;30.05;24.42;;;9.50;99.90;;;;;;7374201;19;20098;-59
2023/11/08 08:14:35;;;;;;;33.85;24.00;;;9.50;99.90;;;;;;7373068;19;20078;-59
2023/11/08 08:17:03;;;;;;;26.85;21.42;;;9.40;99.90;;;;;;7374836;19;20015;-59
2023/11/08 08:19:31;;;;;;;25.75;22.70;;;9.40;99.90;;;;;;7373661;19;20187;-59
2023/11/08 08:22:00;;;;;;;31.40;23.27;;;9.40;99.90;;;;;;7372249;19;20007;-59
2023/11/08 08:24:27;;;;;;;28.38;22.88;;;9.30;99.90;;;;;;7374358;19;20768;-59
2023/11/08 08:26:56;;;;;;;28.50;21.42;;;9.40;99.90;;;;;;7376474;19;20045;-59
2023/11/08 08:29:24;;;;;;;21.63;19.38;;;9.60;99.90;;;;;;7373199;19;20028;-64
2023/11/08 08:31:50;;;;;;;23.40;19.25;;;10.00;99.90;;;;;;7373541;19;20010;-59
2023/11/08 08:34:16;;;;;;;27.02;19.23;;;10.40;99.90;;;;;;7370433;19;20014;-59
2023/11/08 08:36:43;;;;;;;21.67;17.40;;;10.50;99.90;;;;;;7374900;19;20027;-59
2023/11/08 08:39:09;;;;;;;19.27;16.73;;;10.40;99.90;;;;;;7367694;19;21312;-59
2023/11/08 08:41:36;;;;;;;21.17;16.42;;;10.40;99.90;;;;;;7371861;19;20499;-59
2023/11/08 08:44:03;;;;;;;22.27;16.92;;;10.30;99.90;;;;;;7366521;19;20014;-60
2023/11/08 08:46:30;;;;;;;27.13;17.35;;;10.20;99.90;;;;;;7371305;19;20014;-64
2023/11/08 08:48:56;;;;;;;20.73;16.88;;;10.30;99.90;;;;;;7367992;19;20082;-64
2023/11/08 08:51:22;;;;;;;25.48;17.35;;;10.30;99.90;;;;;;7372921;19;20045;-64
2023/11/08 08:53:48;;;;;;;18.52;15.70;;;10.20;99.90;;;;;;7370742;19;20090;-64
2023/11/08 08:56:15;;;;;;;21.90;15.80;;;10.30;99.90;;;;;;7371047;19;20026;-64
2023/11/08 08:58:42;;;;;;;17.60;13.85;;;10.50;99.90;;;;;;7369213;19;20648;-65
2023/11/08 09:01:11;;;;;;;20.17;14.68;;;10.40;99.90;;;;;;7370155;19;20025;-59
2023/11/08 09:03:37;;;;;;;20.58;15.02;;;10.30;99.90;;;;;;7369504;19;20023;-64
2023/11/08 09:06:04;;;;;;;18.95;14.10;;;10.30;99.90;;;;;;7372398;19;20465;-60
2023/11/08 09:08:31;;;;;;;17.85;13.10;;;10.40;99.90;;;;;;7370837;19;20022;-60
2023/11/08 09:10:57;;;;;;;19.30;14.23;;;10.50;99.90;;;;;;7370143;19;20661;-64
2023/11/08 09:13:23;;;;;;;17.15;13.10;;;10.70;99.90;;;;;;7371266;19;20102;-65
2023/11/08 09:15:50;;;;;;;17.48;13.68;;;11.10;99.90;;;;;;7370244;19;20050;-65
2023/11/08 09:18:16;;;;;;;15.00;11.75;;;11.60;99.90;;;;;;7372601;19;20011;-65
2023/11/08 09:20:44;;;;;;;14.25;11.60;;;11.50;99.90;;;;;;7370308;19;20513;-65
2023/11/08 09:23:10;;;;;;;19.75;12.25;;;11.60;99.90;;;;;;7369161;19;20101;-65
2023/11/08 09:25:36;;;;;;;13.88;11.27;;;11.80;99.90;;;;;;7369971;19;20022;-65
2023/11/08 09:28:03;;;;;;;15.70;10.10;;;11.80;99.90;;;;;;7368422;19;20039;-64
2023/11/08 09:30:30;;;;;;;13.73;10.02;;;12.10;99.90;;;;;;7372447;19;20018;-65
2023/11/08 09:32:57;;;;;;;12.45;9.48;;;12.40;99.90;;;;;;7371146;19;20014;-65
2023/11/08 09:35:24;;;;;;;12.43;9.15;;;12.90;99.90;;;;;;7377363;19;20019;-65
2023/11/08 09:37:50;;;;;;;12.65;8.02;;;13.30;99.90;;;;;;7380985;19;20014;-64
2023/11/08 09:40:20;;;;;;;10.98;7.85;;;13.30;99.90;;;;;;7377539;19;20637;-65
2023/11/08 09:42:46;;;;;;;11.55;8.27;;;13.70;99.90;;;;;;7374981;19;20093;-65
2023/11/08 09:45:15;;;;;;;10.32;6.68;;;13.70;99.90;;;;;;7378587;19;20018;-60
2023/11/08 09:47:43;;;;;;;13.00;7.65;;;13.80;99.90;;;;;;7378047;19;20015;-60
2023/11/08 09:50:10;;;;;;;13.65;7.25;;;14.10;99.90;;;;;;7375953;19;20018;-60
2023/11/08 09:52:37;;;;;;;10.50;7.78;;;13.80;99.90;;;;;;7379659;19;20035;-61
2023/11/08 09:55:05;;;;;;;11.73;7.10;;;13.70;99.90;;;;;;7376822;19;20419;-61
2023/11/08 09:57:34;;;;;;;17.10;15.25;;;13.40;99.90;;;;;;7380735;19;20354;-63
2023/11/08 10:00:02;;;;;;;17.88;15.13;;;13.40;99.90;;;;;;7373812;19;20093;-63
2023/11/08 10:02:41;;;;;;;13.30;7.47;;;13.60;99.90;;;;;;7378062;19;20019;-63
2023/11/08 10:05:08;;;;;;;12.88;8.85;;;13.80;99.90;;;;;;7375230;19;20047;-61
2023/11/08 10:07:37;;;;;;;11.73;5.78;;;14.40;99.90;;;;;;7376654;19;20030;-58
2023/11/08 10:10:04;;;;;;;8.13;5.72;;;15.00;99.90;;;;;;7376055;19;20022;-58
2023/11/08 10:12:32;;;;;;;7.90;4.90;;;15.40;99.90;;;;;;7374717;19;21293;-58
2023/11/08 10:15:02;;;;;;;11.23;5.35;;;15.70;99.90;;;;;;7377145;19;20482;-59
2023/11/08 10:17:35;;;;;;;6.82;4.32;;;16.30;99.90;;;;;;7376368;19;20382;-58
2023/11/08 10:20:03;;;;;;;8.32;4.35;;;16.40;99.90;;;;;;7378397;19;20026;-58
2023/11/08 10:22:29;;;;;;;7.50;3.72;;;15.60;99.90;;;;;;7375107;19;20018;-63
2023/11/08 10:24:57;;;;;;;7.30;4.25;;;16.00;99.90;;;;;;7378990;19;20115;-59
2023/11/08 10:27:24;;;;;;;6.50;3.92;;;16.30;99.90;;;;;;7377601;19;20033;-58
2023/11/08 10:29:51;;;;;;;9.60;4.13;;;16.30;99.90;;;;;;7375990;19;20022;-58
2023/11/08 10:32:24;;;;;;;5.57;3.63;;;16.80;99.90;;;;;;7376749;19;20446;-63
2023/11/08 10:34:51;;;;;;;8.68;3.95;;;16.70;99.90;;;;;;7375716;19;20026;-63
2023/11/08 10:37:28;;;;;;;7.43;4.28;;;16.50;99.90;;;;;;7373595;19;20022;-63
2023/11/08 10:39:56;;;;;;;6.32;3.00;;;17.30;99.90;;;;;;7375504;19;20585;-59
2023/11/08 10:42:26;;;;;;;5.47;2.90;;;17.80;99.90;;;;;;7375239;19;20119;-58
2023/11/08 10:45:09;;;;;;;6.90;3.20;;;18.00;99.90;;;;;;7375957;19;20019;-59
2023/11/08 10:47:39;;;;;;;7.72;2.75;;;17.60;99.90;;;;;;7374800;19;20022;-59
2023/11/08 10:50:11;;;;;;;6.03;2.60;;;17.10;99.90;;;;;;7373666;19;20014;-59
2023/11/08 10:52:39;;;;;;;7.90;3.25;;;17.20;99.90;;;;;;7376228;19;20018;-59
2023/11/08 10:55:07;;;;;;;5.75;2.30;;;17.60;99.90;;;;;;7374535;19;20098;-59
2023/11/08 10:57:36;;;;;;;4.63;2.38;;;17.40;99.90;;;;;;7374344;19;20033;-59
2023/11/08 11:00:05;;;;;;;6.22;2.35;;;16.90;99.90;;;;;;7372915;19;20019;-59
2023/11/08 11:02:45;;;;;;;4.88;2.38;;;17.10;99.90;;;;;;7375754;19;20026;-59
2023/11/08 11:05:17;;;;;;;5.32;2.35;;;16.70;99.90;;;;;;7373790;19;20022;-59
2023/11/08 11:07:43;;;;;;;5.80;2.53;;;16.50;99.90;;;;;;7375493;19;20070;-62
2023/11/08 11:10:11;;;;;;;5.75;2.45;;;16.10;99.90;;;;;;7376036;19;20025;-59
2023/11/08 11:12:47;;;;;;;6.97;2.28;;;16.10;99.90;;;;;;7373840;19;20026;-59
2023/11/08 11:15:19;;;;;;;5.65;2.17;;;16.00;99.90;;;;;;7375640;19;20056;-59
2023/11/08 11:17:55;;;;;;;7.03;3.00;;;15.90;99.90;;;;;;7374274;19;20026;-59
2023/11/08 11:20:23;;;;;;;6.75;2.53;;;15.70;99.90;;;;;;7372326;19;20074;-63
2023/11/08 11:22:49;;;;;;;4.75;2.55;;;15.40;99.90;;;;;;7373677;19;20019;-63
2023/11/08 11:25:47;;;;;;;6.13;2.22;;;15.30;99.90;;;;;;7373366;19;20114;-63
2023/11/08 11:28:34;;;;;;;5.25;1.92;;;14.60;99.90;;;;;;7373265;19;20052;-59
2023/11/08 11:31:31;;;;;;;7.43;2.35;;;14.30;99.90;;;;;;7374022;19;20043;-59
2023/11/08 11:33:57;;;;;;;5.88;1.90;;;14.10;99.90;;;;;;7374461;19;21067;-58
2023/11/08 11:36:24;;;;;;;5.38;1.83;;;14.10;99.90;;;;;;7372688;19;20025;-59
2023/11/08 11:39:19;;;;;;;4.18;1.92;;;14.00;99.90;;;;;;7374287;19;20762;-58
2023/11/08 11:41:45;;;;;;;4.43;2.20;;;13.70;99.90;;;;;;7374085;19;20605;-59
2023/11/08 11:44:12;;;;;;;6.82;1.98;;;13.60;99.90;;;;;;7372577;19;20470;-58
2023/11/08 11:46:39;;;;;;;5.40;2.83;;;13.20;99.90;;;;;;7374035;19;20025;-59
2023/11/08 11:49:10;;;;;;;6.10;2.25;;;12.90;99.90;;;;;;7370998;19;20026;-59
2023/11/08 11:51:38;;;;;;;6.93;2.60;;;12.60;99.90;;;;;;7374678;19;20035;-59
2023/11/08 11:54:04;;;;;;;8.18;2.53;;;12.40;99.90;;;;;;7375066;19;20029;-61
2023/11/08 11:56:31;;;;;;;6.00;3.05;;;12.20;99.90;;;;;;7371644;19;20737;-66
2023/11/08 11:58:59;;;;;;;8.75;2.83;;;11.90;99.90;;;;;;7375742;19;20041;-66
2023/11/08 12:01:27;;;;;;;7.15;2.92;;;11.90;99.90;;;;;;7375417;19;20026;-61
2023/11/08 12:03:55;;;;;;;10.93;3.95;;;11.80;99.90;;;;;;7373595;19;20013;-61
2023/11/08 12:06:21;;;;;;;6.60;2.78;;;11.80;99.90;;;;;;7373062;19;20025;-61
2023/11/08 12:08:48;;;;;;;6.45;3.13;;;11.70;99.90;;;;;;7371614;19;21043;-61
2023/11/08 12:11:16;;;;;;;8.95;3.60;;;11.70;99.90;;;;;;7372570;19;20798;-61
2023/11/08 12:13:53;;;;;;;7.75;3.40;;;11.80;99.90;;;;;;7373223;19;20049;-61
2023/11/08 12:16:20;;;;;;;10.18;3.88;;;11.70;99.90;;;;;;7372367;19;20014;-61
2023/11/08 12:18:49;;;;;;;7.68;3.20;;;11.60;99.90;;;;;;7374825;19;20752;-61
2023/11/08 12:21:16;;;;;;;7.82;3.40;;;11.60;99.90;;;;;;7371239;19;20010;-65
2023/11/08 12:23:47;;;;;;;9.63;4.05;;;11.60;99.90;;;;;;7374494;19;20018;-66
2023/11/08 12:26:13;;;;;;;9.18;3.92;;;11.70;99.90;;;;;;7371810;19;20010;-66
2023/11/08 12:28:40;;;;;;;9.80;3.40;;;11.70;99.90;;;;;;7370918;19;20019;-66
2023/11/08 12:31:09;;;;;;;8.32;3.42;;;11.80;99.90;;;;;;7370467;19;20086;-66
2023/11/08 12:33:36;;;;;;;11.68;3.20;;;12.50;99.90;;;;;;7375541;19;20402;-66
2023/11/08 12:36:04;;;;;;;10.02;2.47;;;13.80;99.90;;;;;;7369027;19;20449;-66
2023/11/08 12:38:34;;;;;;;10.77;4.18;;;14.60;99.90;;;;;;7373361;19;20043;-66
2023/11/08 12:41:07;;;;;;;9.25;3.15;;;15.70;99.90;;;;;;7371692;19;20014;-66
2023/11/08 12:43:34;;;;;;;6.90;2.80;;;16.80;99.90;;;;;;7370377;19;20037;-66
2023/11/08 12:46:02;;;;;;;7.68;3.05;;;16.90;99.90;;;;;;7372261;19;20055;-66